createdAt,value
2022-09-26T00:01:55.929Z,8.50
2022-09-26T00:04:32.437Z,8.20
2022-09-26T00:07:01.007Z,8.30
2022-09-26T00:09:40.901Z,7.90
2022-09-26T00:12:09.278Z,7.60
2022-09-26T00:14:39.942Z,8.00
2022-09-26T00:17:08.326Z,9.10
2022-09-26T00:19:36.599Z,9.60
2022-09-26T00:22:04.700Z,10.50
2022-09-26T00:24:56.561Z,9.50
2022-09-26T00:27:24.636Z,9.00
2022-09-26T00:29:55.885Z,9.20
2022-09-26T00:32:24.265Z,9.40
2022-09-26T00:34:52.288Z,10.60
2022-09-26T00:37:43.361Z,10.50
2022-09-26T00:40:12.453Z,8.90
2022-09-26T00:42:40.611Z,9.50
2022-09-26T00:45:09.601Z,8.70
2022-09-26T00:47:38.094Z,9.40
2022-09-26T00:50:29.342Z,10.00
2022-09-26T00:53:06.444Z,9.20
2022-09-26T00:55:48.186Z,9.50
2022-09-26T00:58:41.167Z,9.40
2022-09-26T01:01:10.034Z,9.50
2022-09-26T01:03:41.708Z,10.30
2022-09-26T01:06:10.464Z,9.20
2022-09-26T01:09:13.540Z,11.00
2022-09-26T01:11:50.993Z,8.80
2022-09-26T01:14:21.676Z,10.00
2022-09-26T01:16:55.967Z,10.10
2022-09-26T01:19:57.306Z,10.70
2022-09-26T01:22:49.016Z,9.30
2022-09-26T01:25:41.142Z,9.60
2022-09-26T01:28:24.152Z,10.20
2022-09-26T01:30:55.209Z,10.20
2022-09-26T01:33:37.702Z,9.90
2022-09-26T01:36:46.508Z,9.20
2022-09-26T01:39:30.328Z,8.70
2022-09-26T01:42:38.234Z,9.70
2022-09-26T01:45:31.069Z,8.90
2022-09-26T01:48:17.160Z,10.40
2022-09-26T01:51:12.639Z,9.80
2022-09-26T01:53:56.354Z,9.90
2022-09-26T01:56:28.538Z,9.40
2022-09-26T01:59:12.955Z,11.50
2022-09-26T02:01:44.242Z,11.40
2022-09-26T02:04:21.163Z,11.10
2022-09-26T02:06:52.754Z,10.90
2022-09-26T02:09:27.669Z,10.80
2022-09-26T02:12:02.212Z,11.20
2022-09-26T02:14:34.773Z,10.70
2022-09-26T02:17:25.482Z,10.80
2022-09-26T02:19:58.988Z,10.40
2022-09-26T02:22:33.005Z,10.20
2022-09-26T02:25:03.849Z,10.80
2022-09-26T02:27:32.038Z,10.80
2022-09-26T02:30:00.297Z,10.30
2022-09-26T02:32:31.789Z,11.30
2022-09-26T02:35:01.283Z,10.50
2022-09-26T02:37:31.075Z,11.20
2022-09-26T02:40:01.097Z,10.80
2022-09-26T02:42:38.101Z,11.20
2022-09-26T02:45:28.232Z,10.80
2022-09-26T02:48:08.259Z,10.60
2022-09-26T02:50:39.709Z,10.60
2022-09-26T02:53:42.289Z,10.60
2022-09-26T02:56:20.608Z,9.60
2022-09-26T02:58:59.766Z,10.60
2022-09-26T03:01:44.038Z,10.00
2022-09-26T03:04:26.686Z,10.10
2022-09-26T03:07:00.404Z,9.70
2022-09-26T03:09:30.648Z,9.90
2022-09-26T03:12:02.728Z,10.20
2022-09-26T03:14:34.145Z,10.90
2022-09-26T03:17:04.393Z,10.40
2022-09-26T03:19:39.980Z,9.80
2022-09-26T03:22:09.653Z,10.80
2022-09-26T03:24:41.122Z,9.80
2022-09-26T03:27:12.929Z,10.50
2022-09-26T03:29:41.267Z,9.90
2022-09-26T03:32:16.343Z,10.70
2022-09-26T03:34:45.187Z,10.90
2022-09-26T03:37:13.755Z,10.00
2022-09-26T03:39:42.125Z,9.80
2022-09-26T03:42:16.831Z,8.60
2022-09-26T03:44:47.299Z,9.40
2022-09-26T03:47:35.472Z,9.70
2022-09-26T03:50:06.744Z,9.10
2022-09-26T03:52:36.540Z,9.80
2022-09-26T03:55:08.344Z,9.40
2022-09-26T03:57:36.812Z,9.50
2022-09-26T04:00:18.666Z,9.80
2022-09-26T04:02:47.289Z,9.50
2022-09-26T04:05:23.873Z,9.60
2022-09-26T04:07:55.757Z,8.90
2022-09-26T04:10:24.277Z,9.20
2022-09-26T04:12:57.045Z,9.70
2022-09-26T04:15:26.064Z,9.20
2022-09-26T04:18:08.457Z,8.90
2022-09-26T04:20:36.633Z,9.30
2022-09-26T04:23:05.501Z,9.30
2022-09-26T04:25:39.827Z,9.60
2022-09-26T04:28:08.500Z,10.00
2022-09-26T04:30:37.297Z,10.20
2022-09-26T04:35:51.642Z,9.80
2022-09-26T04:38:19.938Z,10.30
2022-09-26T04:40:48.056Z,10.40
2022-09-26T04:43:16.843Z,10.00
2022-09-26T04:45:45.110Z,9.80
2022-09-26T04:48:13.947Z,10.30
2022-09-26T04:50:44.731Z,10.50
2022-09-26T04:53:13.695Z,10.40
2022-09-26T04:55:54.889Z,10.20
2022-09-26T04:58:23.113Z,10.00
2022-09-26T05:00:52.565Z,11.20
2022-09-26T05:03:37.117Z,10.10
2022-09-26T05:06:17.589Z,9.30
2022-09-26T05:08:49.254Z,9.20
2022-09-26T05:11:32.501Z,9.80
2022-09-26T05:14:04.142Z,8.60
2022-09-26T05:16:32.921Z,9.40
2022-09-26T05:19:04.543Z,9.80
2022-09-26T05:21:36.857Z,9.70
2022-09-26T05:24:27.869Z,9.40
2022-09-26T05:26:56.303Z,10.30
2022-09-26T05:29:35.590Z,10.40
2022-09-26T05:32:05.838Z,9.60
2022-09-26T05:34:37.117Z,9.50
2022-09-26T05:37:05.538Z,9.50
2022-09-26T05:39:51.953Z,10.30
2022-09-26T05:42:20.301Z,8.90
2022-09-26T05:44:49.431Z,8.80
2022-09-26T05:47:17.885Z,9.40
2022-09-26T05:49:51.966Z,8.70
2022-09-26T05:52:22.841Z,9.00
2022-09-26T05:54:52.110Z,9.30
2022-09-26T05:57:53.342Z,9.00
2022-09-26T06:00:22.442Z,8.90
2022-09-26T06:02:58.254Z,8.70
2022-09-26T06:05:52.751Z,8.50
2022-09-26T06:08:27.948Z,8.30
2022-09-26T06:11:13.993Z,7.50
2022-09-26T06:13:45.915Z,8.90
2022-09-26T06:16:24.144Z,8.90
2022-09-26T06:18:53.015Z,8.50
2022-09-26T06:21:21.829Z,8.10
2022-09-26T06:23:56.746Z,8.10
2022-09-26T06:26:32.640Z,7.60
2022-09-26T06:29:01.041Z,7.90
2022-09-26T06:31:37.281Z,7.70
2022-09-26T06:34:13.177Z,7.40
2022-09-26T06:36:53.286Z,8.00
2022-09-26T06:39:21.558Z,7.40
2022-09-26T06:41:51.414Z,7.50
2022-09-26T06:44:36.254Z,7.60
2022-09-26T06:47:29.903Z,8.30
2022-09-26T06:50:23.995Z,8.40
2022-09-26T06:52:55.661Z,7.60
2022-09-26T06:55:25.420Z,7.60
2022-09-26T06:57:54.134Z,7.60
2022-09-26T07:00:26.503Z,7.90
2022-09-26T07:03:20.029Z,8.10
2022-09-26T07:05:51.730Z,8.20
2022-09-26T07:08:28.740Z,8.10
2022-09-26T07:11:28.149Z,8.50
2022-09-26T07:13:54.242Z,8.20
2022-09-26T07:16:23.941Z,8.30
2022-09-26T07:19:03.831Z,7.90
2022-09-26T07:21:55.013Z,8.90
2022-09-26T07:24:34.256Z,8.70
2022-09-26T07:27:03.293Z,7.70
2022-09-26T07:29:37.604Z,9.00
2022-09-26T07:32:05.963Z,8.80
2022-09-26T07:34:41.933Z,8.30
2022-09-26T07:37:13.412Z,8.40
2022-09-26T07:39:41.849Z,8.00
2022-09-26T07:45:20.456Z,8.40
2022-09-26T07:48:00.712Z,7.90
2022-09-26T07:51:06.976Z,7.70
2022-09-26T07:53:44.737Z,8.70
2022-09-26T07:56:34.493Z,8.20
2022-09-26T07:59:21.541Z,8.90
2022-09-26T08:02:32.131Z,8.00
2022-09-26T08:05:03.421Z,7.50
2022-09-26T08:07:35.594Z,7.70
2022-09-26T08:10:22.607Z,8.30
2022-09-26T08:13:09.961Z,8.70
2022-09-26T08:16:08.049Z,8.50
2022-09-26T08:18:43.947Z,8.50
2022-09-26T08:21:12.909Z,8.90
2022-09-26T08:23:44.665Z,8.70
2022-09-26T08:26:44.586Z,7.90
2022-09-26T08:29:35.620Z,8.50
2022-09-26T08:32:04.102Z,7.60
2022-09-26T08:34:35.212Z,8.10
2022-09-26T08:37:26.262Z,6.50
2022-09-26T08:40:12.829Z,6.80
2022-09-26T08:43:39.192Z,6.70
2022-09-26T08:46:59.357Z,6.40
2022-09-26T08:49:51.114Z,6.10
2022-09-26T08:52:44.791Z,6.80
2022-09-26T08:55:18.719Z,6.20
2022-09-26T08:58:02.217Z,6.20
2022-09-26T09:00:33.724Z,6.30
2022-09-26T09:03:29.695Z,5.80
2022-09-26T09:06:15.056Z,6.20
2022-09-26T09:08:49.178Z,5.20
2022-09-26T09:11:41.015Z,5.20
2022-09-26T09:14:15.129Z,4.90
2022-09-26T09:17:42.825Z,4.10
2022-09-26T09:21:13.943Z,4.10
2022-09-26T09:24:18.561Z,3.30
2022-09-26T09:30:21.689Z,2.80
2022-09-26T09:33:12.566Z,2.60
2022-09-26T09:36:14.064Z,2.50
2022-09-26T09:39:07.129Z,2.80
2022-09-26T09:41:55.593Z,2.90
2022-09-26T09:44:49.503Z,2.70
2022-09-26T09:47:19.043Z,2.60
2022-09-26T09:49:49.405Z,2.50
2022-09-26T09:52:53.257Z,2.40
2022-09-26T09:55:51.344Z,2.60
2022-09-26T09:58:50.957Z,3.70
2022-09-26T10:01:32.680Z,2.90
2022-09-26T10:04:21.031Z,3.00
2022-09-26T10:06:51.105Z,2.60
2022-09-26T10:09:35.195Z,2.70
2022-09-26T10:12:31.173Z,2.70
2022-09-26T10:15:20.882Z,2.70
2022-09-26T10:18:30.569Z,2.70
2022-09-26T10:21:16.457Z,3.00
2022-09-26T10:23:50.550Z,2.70
2022-09-26T10:26:39.853Z,3.10
2022-09-26T10:29:34.133Z,2.80
2022-09-26T10:32:03.220Z,3.10
2022-09-26T10:34:35.309Z,2.70
2022-09-26T10:37:23.947Z,2.50
2022-09-26T10:40:17.220Z,3.00
2022-09-26T10:42:48.403Z,2.90
2022-09-26T10:45:20.454Z,2.80
2022-09-26T10:48:22.026Z,3.10
2022-09-26T10:51:36.142Z,3.10
2022-09-26T10:54:18.786Z,3.60
2022-09-26T10:56:59.374Z,3.50
2022-09-26T10:59:36.249Z,3.20
2022-09-26T11:02:06.154Z,3.30
2022-09-26T11:04:53.695Z,3.30
2022-09-26T11:07:49.516Z,3.20
2022-09-26T11:10:36.262Z,4.00
2022-09-26T11:13:32.273Z,5.60
2022-09-26T11:16:15.656Z,5.70
2022-09-26T11:18:59.079Z,5.50
2022-09-26T11:22:07.315Z,5.80
2022-09-26T11:25:06.814Z,6.10
2022-09-26T11:28:15.915Z,6.10
2022-09-26T11:31:26.689Z,5.60
2022-09-26T11:34:21.904Z,5.40
2022-09-26T11:37:13.469Z,5.20
2022-09-26T11:40:00.024Z,5.70
2022-09-26T11:42:47.137Z,5.60
2022-09-26T11:45:40.909Z,6.60
2022-09-26T11:48:37.529Z,6.80
2022-09-26T11:51:49.943Z,6.10
2022-09-26T11:54:28.192Z,5.80
2022-09-26T11:57:34.449Z,5.70
2022-09-26T12:00:06.776Z,5.80
2022-09-26T12:03:03.695Z,5.50
2022-09-26T12:05:53.669Z,6.20
2022-09-26T12:08:51.732Z,6.10
2022-09-26T12:11:36.967Z,5.80
2022-09-26T12:14:20.875Z,6.00
2022-09-26T12:16:55.188Z,6.00
2022-09-26T12:19:38.892Z,6.10
2022-09-26T12:22:29.075Z,5.90
2022-09-26T12:25:10.862Z,6.00
2022-09-26T12:28:00.454Z,6.00
2022-09-26T12:30:36.270Z,6.30
2022-09-26T12:33:16.257Z,6.00
2022-09-26T12:36:25.410Z,6.10
2022-09-26T12:39:17.939Z,5.70
2022-09-26T12:42:16.423Z,6.00
2022-09-26T12:45:28.810Z,5.40
2022-09-26T12:48:30.196Z,5.90
2022-09-26T12:51:23.304Z,7.60
2022-09-26T12:54:13.190Z,7.50
2022-09-26T12:57:08.469Z,7.40
2022-09-26T13:00:21.053Z,6.80
2022-09-26T13:03:24.428Z,8.70
2022-09-26T13:06:10.678Z,9.00
2022-09-26T13:09:07.842Z,8.30
2022-09-26T13:12:04.317Z,7.70
2022-09-26T13:14:50.689Z,7.10
2022-09-26T13:17:24.595Z,6.60
2022-09-26T13:20:04.762Z,6.20
2022-09-26T13:22:59.498Z,8.00
2022-09-26T13:25:49.794Z,6.80
2022-09-26T13:28:24.310Z,6.50
2022-09-26T13:31:09.462Z,6.70
2022-09-26T13:33:48.908Z,6.70
2022-09-26T13:36:20.352Z,6.50
2022-09-26T13:39:14.588Z,7.20
2022-09-26T13:42:01.419Z,7.10
2022-09-26T13:45:04.220Z,6.90
2022-09-26T13:47:38.117Z,6.60
2022-09-26T13:50:33.776Z,6.40
2022-09-26T13:53:38.021Z,6.20
2022-09-26T13:56:34.931Z,6.80
2022-09-26T13:59:26.148Z,6.60
2022-09-26T14:02:18.957Z,7.00
2022-09-26T14:04:50.116Z,7.10
2022-09-26T14:08:02.090Z,7.40
2022-09-26T14:10:41.780Z,7.10
2022-09-26T14:13:33.435Z,6.60
2022-09-26T14:16:26.331Z,6.30
2022-09-26T14:19:14.263Z,6.60
2022-09-26T14:22:06.423Z,6.90
2022-09-26T14:24:41.842Z,7.10
2022-09-26T14:27:10.042Z,6.50
2022-09-26T14:29:42.445Z,6.90
2022-09-26T14:32:20.073Z,6.50
2022-09-26T14:34:57.375Z,7.00
2022-09-26T14:37:29.760Z,6.70
2022-09-26T14:39:57.767Z,6.70
2022-09-26T14:42:34.244Z,6.20
2022-09-26T14:45:06.722Z,6.90
2022-09-26T14:48:01.330Z,6.70
2022-09-26T14:50:35.604Z,6.50
2022-09-26T14:53:18.915Z,6.50
2022-09-26T14:56:16.368Z,6.50
2022-09-26T14:58:47.068Z,7.00
2022-09-26T15:01:38.235Z,7.60
2022-09-26T15:04:26.074Z,8.60
2022-09-26T15:07:01.999Z,8.30
2022-09-26T15:09:50.849Z,8.90
2022-09-26T15:12:23.174Z,8.70
2022-09-26T15:15:12.688Z,9.00
2022-09-26T15:17:52.897Z,8.60
2022-09-26T15:20:25.318Z,7.70
2022-09-26T15:22:57.341Z,7.60
2022-09-26T15:25:32.192Z,8.20
2022-09-26T15:28:01.850Z,7.60
2022-09-26T15:30:34.757Z,7.40
2022-09-26T15:33:04.209Z,7.80
2022-09-26T15:35:33.156Z,7.50
2022-09-26T15:38:11.935Z,8.40
2022-09-26T15:40:40.331Z,7.60
2022-09-26T15:43:16.045Z,7.50
2022-09-26T15:45:47.211Z,7.50
2022-09-26T15:48:19.936Z,8.10
2022-09-26T15:51:25.633Z,7.10
2022-09-26T15:53:58.500Z,7.50
2022-09-26T15:56:28.923Z,7.20
2022-09-26T15:59:01.913Z,7.00
2022-09-26T16:01:31.529Z,8.50
2022-09-26T16:04:04.037Z,7.70
2022-09-26T16:06:39.729Z,8.10
2022-09-26T16:09:13.912Z,7.60
2022-09-26T16:11:46.472Z,7.00
2022-09-26T16:14:54.946Z,8.00
2022-09-26T16:17:27.944Z,7.50
2022-09-26T16:20:09.554Z,8.30
2022-09-26T16:22:40.318Z,8.60
2022-09-26T16:25:28.474Z,8.80
2022-09-26T16:27:58.226Z,8.30
2022-09-26T16:30:30.069Z,9.30
2022-09-26T16:33:07.588Z,11.50
2022-09-26T16:35:37.799Z,11.90
2022-09-26T16:38:27.081Z,10.60
2022-09-26T16:41:07.946Z,10.50
2022-09-26T16:43:37.862Z,11.10
2022-09-26T16:46:09.220Z,12.60
2022-09-26T16:48:40.330Z,11.30
2022-09-26T16:51:18.970Z,10.80
2022-09-26T16:53:49.814Z,10.50
2022-09-26T16:56:21.454Z,10.30
2022-09-26T16:58:53.972Z,10.80
2022-09-26T17:01:49.035Z,9.90
2022-09-26T17:04:20.850Z,10.80
2022-09-26T17:06:52.281Z,10.70
2022-09-26T17:09:42.175Z,10.30
2022-09-26T17:12:22.495Z,10.00
2022-09-26T17:14:52.185Z,8.90
2022-09-26T17:17:24.957Z,9.40
2022-09-26T17:19:59.142Z,9.10
2022-09-26T17:22:28.558Z,9.30
2022-09-26T17:24:58.122Z,9.00
2022-09-26T17:27:33.964Z,8.70
2022-09-26T17:30:05.204Z,8.70
2022-09-26T17:32:44.174Z,7.80
2022-09-26T17:35:24.941Z,8.50
2022-09-26T17:37:54.594Z,7.90
2022-09-26T17:40:26.515Z,8.00
2022-09-26T17:42:56.665Z,8.10
2022-09-26T17:45:34.140Z,9.30
2022-09-26T17:48:05.495Z,10.10
2022-09-26T17:50:35.531Z,9.50
2022-09-26T17:53:04.304Z,8.20
2022-09-26T17:55:33.566Z,7.50
2022-09-26T17:58:02.528Z,7.40
2022-09-26T18:00:40.390Z,6.90
2022-09-26T18:03:19.115Z,7.40
2022-09-26T18:05:47.784Z,7.80
2022-09-26T18:08:33.737Z,7.80
2022-09-26T18:11:11.040Z,8.60
2022-09-26T18:13:51.061Z,7.40
2022-09-26T18:16:19.294Z,7.30
2022-09-26T18:18:48.095Z,7.40
2022-09-26T18:21:18.839Z,6.70
2022-09-26T18:23:55.645Z,6.60
2022-09-26T18:26:42.151Z,6.30
2022-09-26T18:29:15.300Z,6.80
2022-09-26T18:31:47.047Z,7.10
2022-09-26T18:34:19.932Z,7.70
2022-09-26T18:36:50.253Z,7.90
2022-09-26T18:39:18.830Z,8.90
2022-09-26T18:41:50.954Z,8.50
2022-09-26T18:44:20.284Z,8.10
2022-09-26T18:46:49.259Z,8.00
2022-09-26T18:49:18.096Z,8.10
2022-09-26T18:51:47.790Z,8.60
2022-09-26T18:54:17.744Z,8.50
2022-09-26T18:57:04.229Z,7.50
2022-09-26T18:59:35.258Z,8.30
2022-09-26T19:02:05.369Z,8.10
2022-09-26T19:04:34.173Z,8.60
2022-09-26T19:07:07.247Z,9.10
2022-09-26T19:09:36.340Z,9.80
2022-09-26T19:12:05.327Z,7.80
2022-09-26T19:14:35.959Z,7.90
2022-09-26T19:17:04.924Z,8.70
2022-09-26T19:19:33.294Z,10.10
2022-09-26T19:22:08.239Z,8.80
2022-09-26T19:24:54.925Z,8.30
2022-09-26T19:27:39.729Z,10.00
2022-09-26T19:30:15.623Z,9.00
2022-09-26T19:32:49.314Z,8.80
2022-09-26T19:35:23.357Z,8.30
2022-09-26T19:37:52.616Z,9.00
2022-09-26T19:40:22.647Z,8.60
2022-09-26T19:42:51.277Z,7.90
2022-09-26T19:45:19.963Z,8.50
2022-09-26T19:47:56.228Z,9.60
2022-09-26T19:50:25.982Z,8.80
2022-09-26T19:52:58.549Z,9.00
2022-09-26T19:55:30.366Z,8.00
2022-09-26T19:58:11.329Z,9.20
2022-09-26T20:00:44.666Z,9.50
2022-09-26T20:03:28.029Z,11.00
2022-09-26T20:05:56.281Z,10.50
2022-09-26T20:08:26.861Z,10.40
2022-09-26T20:10:55.890Z,10.10
2022-09-26T20:13:24.325Z,11.40
2022-09-26T20:15:52.509Z,11.10
2022-09-26T20:18:24.407Z,10.80
2022-09-26T20:20:57.328Z,11.90
2022-09-26T20:23:27.310Z,11.50
2022-09-26T20:25:56.082Z,11.80
2022-09-26T20:28:25.138Z,10.80
2022-09-26T20:30:55.309Z,11.50
2022-09-26T20:33:26.189Z,10.70
2022-09-26T20:36:03.619Z,10.70
2022-09-26T20:38:32.089Z,10.80
2022-09-26T20:41:12.701Z,10.60
2022-09-26T20:43:44.596Z,11.20
2022-09-26T20:46:13.545Z,10.60
2022-09-26T20:48:47.177Z,11.10
2022-09-26T20:51:23.693Z,11.00
2022-09-26T20:53:52.110Z,11.10
2022-09-26T20:56:21.449Z,11.20
2022-09-26T20:58:50.031Z,11.10
2022-09-26T21:01:20.249Z,10.50
2022-09-26T21:03:55.166Z,10.30
2022-09-26T21:06:28.099Z,9.80
2022-09-26T21:08:57.325Z,9.70
2022-09-26T21:11:25.975Z,10.80
2022-09-26T21:14:04.626Z,10.20
2022-09-26T21:16:33.179Z,10.20
2022-09-26T21:19:01.746Z,10.30
2022-09-26T21:21:35.568Z,9.60
2022-09-26T21:24:49.153Z,9.90
2022-09-26T21:27:17.439Z,11.10
2022-09-26T21:29:45.632Z,11.80
2022-09-26T21:32:21.305Z,11.10
2022-09-26T21:35:03.270Z,11.30
2022-09-26T21:37:31.835Z,11.70
2022-09-26T21:40:00.041Z,11.70
2022-09-26T21:42:28.378Z,11.20
2022-09-26T21:45:01.361Z,11.10
2022-09-26T21:47:29.540Z,11.00
2022-09-26T21:49:58.299Z,11.30
2022-09-26T21:52:37.021Z,10.70
2022-09-26T21:55:06.452Z,10.50
2022-09-26T21:57:41.378Z,10.20
2022-09-26T22:00:11.806Z,12.40
2022-09-26T22:02:43.137Z,11.70
2022-09-26T22:05:12.163Z,11.90
2022-09-26T22:10:08.679Z,11.20
2022-09-26T22:12:37.154Z,10.80
2022-09-26T22:15:07.931Z,11.30
2022-09-26T22:17:36.103Z,10.30
2022-09-26T22:20:04.989Z,11.60
2022-09-26T22:22:33.244Z,11.00
2022-09-26T22:25:04.489Z,11.10
2022-09-26T22:27:34.465Z,11.30
2022-09-26T22:30:04.141Z,10.20
2022-09-26T22:32:32.325Z,10.30
2022-09-26T22:35:00.341Z,10.70
2022-09-26T22:37:28.936Z,9.90
2022-09-26T22:39:57.136Z,10.50
2022-09-26T22:42:25.360Z,10.00
2022-09-26T22:44:53.418Z,11.40
2022-09-26T22:47:21.591Z,12.20
2022-09-26T22:49:49.790Z,11.20
2022-09-26T22:52:18.157Z,10.90
2022-09-26T22:54:46.156Z,10.80
2022-09-26T22:57:14.399Z,10.70
2022-09-26T22:59:42.567Z,11.00
2022-09-26T23:02:10.813Z,9.60
2022-09-26T23:04:47.680Z,10.20
2022-09-26T23:07:18.999Z,9.60
2022-09-26T23:09:56.046Z,10.10
2022-09-26T23:12:24.217Z,9.40
2022-09-26T23:14:52.307Z,9.00
2022-09-26T23:17:20.370Z,7.00
2022-09-26T23:19:48.605Z,4.50
2022-09-26T23:22:17.264Z,5.20
2022-09-26T23:24:45.473Z,5.70
2022-09-26T23:27:13.627Z,6.00
2022-09-26T23:29:41.841Z,6.10
2022-09-26T23:32:10.203Z,5.70
2022-09-26T23:34:38.357Z,6.20
2022-09-26T23:37:06.529Z,3.70
2022-09-26T23:39:34.712Z,2.30
2022-09-26T23:42:03.391Z,1.50
2022-09-26T23:44:32.623Z,1.30
2022-09-26T23:47:04.153Z,1.50
2022-09-26T23:49:32.222Z,1.10
2022-09-26T23:52:00.635Z,1.20
2022-09-26T23:54:28.665Z,1.50
2022-09-26T23:56:56.820Z,1.40
2022-09-26T23:59:27.963Z,1.40
